createdAt,value
2017-09-27T00:01:16.617Z,95.60
2017-09-27T00:03:44.070Z,95.70
2017-09-27T00:06:11.582Z,95.70
2017-09-27T00:08:39.066Z,95.90
2017-09-27T00:11:06.531Z,95.90
2017-09-27T00:13:34.003Z,95.80
2017-09-27T00:16:01.878Z,95.70
2017-09-27T00:18:29.360Z,95.60
2017-09-27T00:20:57.588Z,95.50
2017-09-27T00:23:25.088Z,95.80
2017-09-27T00:25:53.387Z,95.50
2017-09-27T00:28:20.848Z,95.50
2017-09-27T00:30:48.618Z,95.50
2017-09-27T00:33:16.246Z,95.60
2017-09-27T00:35:44.492Z,95.80
2017-09-27T00:38:12.131Z,95.80
2017-09-27T00:40:39.800Z,95.70
2017-09-27T00:43:08.830Z,95.50
2017-09-27T00:45:37.114Z,95.50
2017-09-27T00:48:04.797Z,95.50
2017-09-27T00:50:32.295Z,95.10
2017-09-27T00:53:00.221Z,95.20
2017-09-27T00:55:27.721Z,95.20
2017-09-27T00:57:55.216Z,95.30
2017-09-27T01:00:23.542Z,95.40
2017-09-27T01:02:51.042Z,95.30
2017-09-27T01:05:19.300Z,95.20
2017-09-27T01:07:46.955Z,95.20
2017-09-27T01:10:14.491Z,95.10
2017-09-27T01:12:41.960Z,95.00
2017-09-27T01:15:09.488Z,95.00
2017-09-27T01:17:36.982Z,95.00
2017-09-27T01:20:04.459Z,94.90
2017-09-27T01:22:32.304Z,95.00
2017-09-27T01:24:59.762Z,94.90
2017-09-27T01:27:28.774Z,95.20
2017-09-27T01:29:56.287Z,94.90
2017-09-27T01:32:23.759Z,94.90
2017-09-27T01:34:51.238Z,95.00
2017-09-27T01:37:18.937Z,95.00
2017-09-27T01:39:46.406Z,94.90
2017-09-27T01:42:13.865Z,94.90
2017-09-27T01:44:41.787Z,94.90
2017-09-27T01:47:09.278Z,95.00
2017-09-27T01:49:36.744Z,94.90
2017-09-27T01:52:04.502Z,94.80
2017-09-27T01:54:32.075Z,94.70
2017-09-27T01:56:59.529Z,94.60
2017-09-27T01:59:27.322Z,94.60
2017-09-27T02:01:54.804Z,94.50
2017-09-27T02:04:22.311Z,94.60
2017-09-27T02:06:49.941Z,94.70
2017-09-27T02:09:18.189Z,94.40
2017-09-27T02:11:45.718Z,94.40
2017-09-27T02:14:13.238Z,94.50
2017-09-27T02:16:42.184Z,94.80
2017-09-27T02:19:09.650Z,94.70
2017-09-27T02:21:37.645Z,94.70
2017-09-27T02:24:05.869Z,94.50
2017-09-27T02:26:33.407Z,94.40
2017-09-27T02:29:01.795Z,94.50
2017-09-27T02:31:29.292Z,94.60
2017-09-27T02:33:57.685Z,94.50
2017-09-27T02:36:25.276Z,94.50
2017-09-27T02:38:52.775Z,94.60
2017-09-27T02:41:20.254Z,94.50
2017-09-27T02:43:48.177Z,94.30
2017-09-27T02:46:15.644Z,94.30
2017-09-27T02:48:43.132Z,94.40
2017-09-27T02:51:10.752Z,94.50
2017-09-27T02:53:38.222Z,94.30
2017-09-27T02:56:05.782Z,94.20
2017-09-27T02:58:33.391Z,94.40
2017-09-27T03:01:01.731Z,94.40
2017-09-27T03:03:29.226Z,94.30
2017-09-27T03:05:57.505Z,94.50
2017-09-27T03:08:25.780Z,94.20
2017-09-27T03:10:54.191Z,94.40
2017-09-27T03:13:21.695Z,94.10
2017-09-27T03:15:49.217Z,94.20
2017-09-27T03:18:16.682Z,94.20
2017-09-27T03:20:44.257Z,94.30
2017-09-27T03:23:11.725Z,94.40
2017-09-27T03:25:39.213Z,94.40
2017-09-27T03:28:07.457Z,94.30
2017-09-27T03:30:34.934Z,94.30
2017-09-27T03:33:03.165Z,94.40
2017-09-27T03:35:30.957Z,94.40
2017-09-27T03:37:58.424Z,94.50
2017-09-27T03:40:25.902Z,94.20
2017-09-27T03:42:53.484Z,94.50
2017-09-27T03:45:21.014Z,94.20
2017-09-27T03:47:49.343Z,94.30
2017-09-27T03:50:17.106Z,94.30
2017-09-27T03:52:44.569Z,94.40
2017-09-27T03:55:12.063Z,94.30
2017-09-27T03:57:39.810Z,94.30
2017-09-27T04:00:07.326Z,94.40
2017-09-27T04:02:34.805Z,94.50
2017-09-27T04:05:02.490Z,94.60
2017-09-27T04:07:30.749Z,94.70
2017-09-27T04:09:58.676Z,94.70
2017-09-27T04:12:26.223Z,94.70
2017-09-27T04:14:53.710Z,94.60
2017-09-27T04:17:21.227Z,94.60
2017-09-27T04:19:49.793Z,94.60
2017-09-27T04:22:18.057Z,94.60
2017-09-27T04:24:45.596Z,94.60
2017-09-27T04:27:13.419Z,94.60
2017-09-27T04:29:41.739Z,94.70
2017-09-27T04:32:09.229Z,94.90
2017-09-27T04:34:36.711Z,94.70
2017-09-27T04:37:05.748Z,95.30
2017-09-27T04:39:33.226Z,95.30
2017-09-27T04:42:00.950Z,95.40
2017-09-27T04:44:28.417Z,95.50
2017-09-27T04:46:55.965Z,95.90
2017-09-27T04:49:23.462Z,96.00
2017-09-27T04:51:50.988Z,95.80
2017-09-27T04:54:18.451Z,95.70
2017-09-27T04:56:46.023Z,95.70
2017-09-27T04:59:13.520Z,95.70
2017-09-27T05:01:41.052Z,95.60
2017-09-27T05:04:08.958Z,95.60
2017-09-27T05:06:37.239Z,95.40
2017-09-27T05:09:05.027Z,95.30
2017-09-27T05:11:32.749Z,95.30
2017-09-27T05:14:01.036Z,95.40
2017-09-27T05:16:29.388Z,95.40
2017-09-27T05:18:57.154Z,95.40
2017-09-27T05:21:24.646Z,95.50
2017-09-27T05:23:52.123Z,95.30
2017-09-27T05:26:19.854Z,95.20
2017-09-27T05:28:48.131Z,95.20
2017-09-27T05:31:16.416Z,95.20
2017-09-27T05:33:44.278Z,95.20
2017-09-27T05:36:12.795Z,95.20
2017-09-27T05:38:40.293Z,95.20
2017-09-27T05:41:08.087Z,95.30
2017-09-27T05:43:35.576Z,95.30
2017-09-27T05:46:03.063Z,95.30
2017-09-27T05:48:30.767Z,95.40
2017-09-27T05:50:58.279Z,95.50
2017-09-27T05:53:26.586Z,95.50
2017-09-27T05:55:55.056Z,95.40
2017-09-27T05:58:23.373Z,95.40
2017-09-27T06:00:50.884Z,95.30
2017-09-27T06:03:18.491Z,95.30
2017-09-27T06:05:45.955Z,95.40
2017-09-27T06:08:13.438Z,95.60
2017-09-27T06:10:41.072Z,95.90
2017-09-27T06:13:08.567Z,96.00
2017-09-27T06:15:36.089Z,96.10
2017-09-27T06:18:03.595Z,96.20
2017-09-27T06:20:31.873Z,95.90
2017-09-27T06:22:59.454Z,95.90
2017-09-27T06:25:28.690Z,96.00
2017-09-27T06:27:56.153Z,95.90
2017-09-27T06:30:23.618Z,96.10
2017-09-27T06:32:51.336Z,95.90
2017-09-27T06:35:18.814Z,95.90
2017-09-27T06:37:46.863Z,95.90
2017-09-27T06:40:15.529Z,96.00
2017-09-27T06:42:43.784Z,95.90
2017-09-27T06:45:11.680Z,95.90
2017-09-27T06:47:39.983Z,95.70
2017-09-27T06:50:07.468Z,95.60
2017-09-27T06:52:34.957Z,95.70
2017-09-27T06:55:02.487Z,95.60
2017-09-27T06:57:30.130Z,95.50
2017-09-27T06:59:59.237Z,95.30
2017-09-27T07:02:26.997Z,95.20
2017-09-27T07:04:54.473Z,95.20
2017-09-27T07:07:21.962Z,95.00
2017-09-27T07:09:50.281Z,94.80
2017-09-27T07:12:17.817Z,94.80
2017-09-27T07:14:46.125Z,94.80
2017-09-27T07:17:13.618Z,94.80
2017-09-27T07:19:41.105Z,94.50
2017-09-27T07:22:08.595Z,94.60
2017-09-27T07:24:36.363Z,94.30
2017-09-27T07:27:03.836Z,94.20
2017-09-27T07:29:31.427Z,94.00
2017-09-27T07:31:59.704Z,92.60
2017-09-27T07:34:28.016Z,92.20
2017-09-27T07:36:55.533Z,92.20
2017-09-27T07:39:23.035Z,91.80
2017-09-27T07:41:51.438Z,91.50
2017-09-27T07:44:19.134Z,91.50
2017-09-27T07:46:46.636Z,90.30
2017-09-27T07:49:14.149Z,91.30
2017-09-27T07:51:41.767Z,92.00
2017-09-27T07:54:09.238Z,92.60
2017-09-27T07:56:36.784Z,92.00
2017-09-27T07:59:04.604Z,90.20
2017-09-27T08:01:32.838Z,90.00
2017-09-27T08:04:00.381Z,90.00
2017-09-27T08:06:28.088Z,90.70
2017-09-27T08:08:57.064Z,91.70
2017-09-27T08:11:24.584Z,91.60
2017-09-27T08:13:52.061Z,91.70
2017-09-27T08:16:19.652Z,92.40
2017-09-27T08:18:47.969Z,92.70
2017-09-27T08:21:15.548Z,92.80
2017-09-27T08:23:43.030Z,92.60
2017-09-27T08:26:10.516Z,92.50
2017-09-27T08:28:38.764Z,92.80
2017-09-27T08:31:06.265Z,92.80
2017-09-27T08:33:33.871Z,92.40
2017-09-27T08:36:01.398Z,92.40
2017-09-27T08:38:28.873Z,92.70
2017-09-27T08:40:56.560Z,92.40
2017-09-27T08:43:24.077Z,92.00
2017-09-27T08:45:51.674Z,91.90
2017-09-27T08:48:19.160Z,91.60
2017-09-27T08:50:57.383Z,91.60
2017-09-27T08:53:25.132Z,91.60
2017-09-27T08:55:57.261Z,91.30
2017-09-27T08:58:24.768Z,91.30
2017-09-27T09:00:53.024Z,90.90
2017-09-27T09:03:20.527Z,90.90
2017-09-27T09:05:48.035Z,91.10
2017-09-27T09:08:15.607Z,91.10
2017-09-27T09:10:43.849Z,91.20
2017-09-27T09:13:11.626Z,91.20
2017-09-27T09:15:39.919Z,91.20
2017-09-27T09:18:08.887Z,91.20
2017-09-27T09:20:36.623Z,91.20
2017-09-27T09:23:04.544Z,91.40
2017-09-27T09:25:32.796Z,91.10
2017-09-27T09:28:00.314Z,91.10
2017-09-27T09:30:27.894Z,91.10
2017-09-27T09:32:55.353Z,91.00
2017-09-27T09:35:23.123Z,91.20
2017-09-27T09:37:50.606Z,91.20
2017-09-27T09:40:18.114Z,91.00
2017-09-27T09:42:45.850Z,90.80
2017-09-27T09:45:14.102Z,90.40
2017-09-27T09:47:41.569Z,90.40
2017-09-27T09:50:10.157Z,90.30
2017-09-27T09:52:38.448Z,90.10
2017-09-27T09:55:06.028Z,90.10
2017-09-27T09:57:34.597Z,90.00
2017-09-27T10:00:02.181Z,90.00
2017-09-27T10:02:29.714Z,88.80
2017-09-27T10:04:57.374Z,89.30
2017-09-27T10:07:25.643Z,89.00
2017-09-27T10:09:53.901Z,88.50
2017-09-27T10:12:21.473Z,88.50
2017-09-27T10:14:49.751Z,88.10
2017-09-27T10:17:17.984Z,88.30
2017-09-27T10:19:45.673Z,88.20
2017-09-27T10:22:13.944Z,86.90
2017-09-27T10:24:42.196Z,87.80
2017-09-27T10:27:10.102Z,87.10
2017-09-27T10:29:38.343Z,86.80
2017-09-27T10:32:05.880Z,86.70
2017-09-27T10:34:33.648Z,86.60
2017-09-27T10:37:01.158Z,85.80
2017-09-27T10:39:29.433Z,85.20
2017-09-27T10:41:58.617Z,84.80
2017-09-27T10:44:26.277Z,84.80
2017-09-27T10:46:53.730Z,84.30
2017-09-27T10:49:21.620Z,83.80
2017-09-27T10:51:49.937Z,83.60
2017-09-27T10:54:17.437Z,83.60
2017-09-27T10:56:45.077Z,82.20
2017-09-27T10:59:12.631Z,81.80
2017-09-27T11:01:40.150Z,81.60
2017-09-27T11:04:07.806Z,81.80
2017-09-27T11:06:35.295Z,80.40
2017-09-27T11:09:02.785Z,80.40
2017-09-27T11:11:30.504Z,80.80
2017-09-27T11:13:57.986Z,81.20
2017-09-27T11:16:36.251Z,80.10
2017-09-27T11:19:03.738Z,79.20
2017-09-27T11:21:31.253Z,78.30
2017-09-27T11:23:59.323Z,78.40
2017-09-27T11:26:27.618Z,77.40
2017-09-27T11:28:55.094Z,77.30
2017-09-27T11:31:22.747Z,77.40
2017-09-27T11:33:50.247Z,78.40
2017-09-27T11:36:17.746Z,77.20
2017-09-27T11:38:46.202Z,76.40
2017-09-27T11:41:13.779Z,76.40
2017-09-27T11:43:42.031Z,77.00
2017-09-27T11:46:09.698Z,77.00
2017-09-27T11:48:37.190Z,75.20
2017-09-27T11:51:04.650Z,75.60
2017-09-27T11:53:32.145Z,76.10
2017-09-27T11:55:59.653Z,75.10
2017-09-27T11:58:27.206Z,73.80
2017-09-27T12:00:55.734Z,73.90
2017-09-27T12:03:23.235Z,73.90
2017-09-27T12:05:51.656Z,74.10
2017-09-27T12:08:19.435Z,74.10
2017-09-27T12:10:46.955Z,72.80
2017-09-27T12:13:14.469Z,71.40
2017-09-27T12:15:42.018Z,71.20
2017-09-27T12:18:09.517Z,72.00
2017-09-27T12:20:38.549Z,72.00
2017-09-27T12:23:06.175Z,72.00
2017-09-27T12:25:34.889Z,71.00
2017-09-27T12:28:02.357Z,70.90
2017-09-27T12:30:30.008Z,70.40
2017-09-27T12:32:57.501Z,70.80
2017-09-27T12:35:24.997Z,70.60
2017-09-27T12:37:53.278Z,69.60
2017-09-27T12:40:21.497Z,70.20
2017-09-27T12:42:49.022Z,70.10
2017-09-27T12:45:16.504Z,70.60
2017-09-27T12:47:43.996Z,69.00
2017-09-27T12:50:11.678Z,69.20
2017-09-27T12:52:39.931Z,68.30
2017-09-27T12:55:07.506Z,68.20
2017-09-27T12:57:35.762Z,68.40
2017-09-27T13:00:03.268Z,68.40
2017-09-27T13:02:30.785Z,68.60
2017-09-27T13:04:58.307Z,66.80
2017-09-27T13:07:25.758Z,67.00
2017-09-27T13:09:53.320Z,66.60
2017-09-27T13:12:21.054Z,66.80
2017-09-27T13:14:49.299Z,66.80
2017-09-27T13:17:16.773Z,66.80
2017-09-27T13:19:45.190Z,65.30
2017-09-27T13:22:12.674Z,65.30
2017-09-27T13:24:40.201Z,65.50
2017-09-27T13:27:07.683Z,63.80
2017-09-27T13:29:35.165Z,63.40
2017-09-27T13:32:02.669Z,62.60
2017-09-27T13:34:30.158Z,63.00
2017-09-27T13:36:58.589Z,63.40
2017-09-27T13:39:26.861Z,62.40
2017-09-27T13:41:55.344Z,63.30
2017-09-27T13:44:23.698Z,61.80
2017-09-27T13:46:51.178Z,61.80
2017-09-27T13:49:19.638Z,61.30
2017-09-27T13:54:29.753Z,61.90
2017-09-27T13:56:57.260Z,62.00
2017-09-27T13:59:26.244Z,61.80
2017-09-27T14:01:53.967Z,61.70
2017-09-27T14:04:21.458Z,61.30
2017-09-27T14:06:48.983Z,61.00
2017-09-27T14:09:16.854Z,60.20
2017-09-27T14:11:44.338Z,60.60
2017-09-27T14:14:11.818Z,59.40
2017-09-27T14:16:39.330Z,61.20
2017-09-27T14:19:07.401Z,61.10
2017-09-27T14:21:34.870Z,59.80
2017-09-27T14:24:02.442Z,60.70
2017-09-27T14:26:29.926Z,59.80
2017-09-27T14:28:58.294Z,60.70
2017-09-27T14:31:26.064Z,60.50
2017-09-27T14:33:53.575Z,61.20
2017-09-27T14:36:21.035Z,62.10
2017-09-27T14:38:48.566Z,60.80
2017-09-27T14:41:16.061Z,61.40
2017-09-27T14:43:44.146Z,59.80
2017-09-27T14:46:11.827Z,59.80
2017-09-27T14:48:39.318Z,60.00
2017-09-27T14:51:06.896Z,60.10
2017-09-27T14:53:34.418Z,60.00
2017-09-27T14:56:02.113Z,60.10
2017-09-27T14:58:41.364Z,60.20
2017-09-27T15:01:08.878Z,59.60
2017-09-27T15:03:37.169Z,60.20
2017-09-27T15:06:04.927Z,60.00
2017-09-27T15:08:33.178Z,60.80
2017-09-27T15:11:00.807Z,60.70
2017-09-27T15:13:28.546Z,60.70
2017-09-27T15:15:56.022Z,60.70
2017-09-27T15:18:23.529Z,60.70
2017-09-27T15:20:51.822Z,61.80
2017-09-27T15:23:19.308Z,61.70
2017-09-27T15:25:46.812Z,60.90
2017-09-27T15:28:14.490Z,61.60
2017-09-27T15:30:42.741Z,63.60
2017-09-27T15:33:11.027Z,62.00
2017-09-27T15:35:38.748Z,61.90
2017-09-27T15:38:06.214Z,62.70
2017-09-27T15:40:33.696Z,63.70
2017-09-27T15:43:01.254Z,66.40
2017-09-27T15:45:28.781Z,64.50
2017-09-27T15:47:57.188Z,64.90
2017-09-27T15:50:24.773Z,65.90
2017-09-27T15:52:52.997Z,66.60
2017-09-27T15:55:21.429Z,66.50
2017-09-27T15:57:49.199Z,67.10
2017-09-27T16:00:17.496Z,69.10
2017-09-27T16:02:45.002Z,69.10
2017-09-27T16:05:12.870Z,69.70
2017-09-27T16:07:40.341Z,70.10
2017-09-27T16:10:08.599Z,70.50
2017-09-27T16:12:36.126Z,70.40
2017-09-27T16:15:03.686Z,71.00
2017-09-27T16:17:31.175Z,71.80
2017-09-27T16:19:58.897Z,71.60
2017-09-27T16:22:26.383Z,72.60
2017-09-27T16:24:53.851Z,72.00
2017-09-27T16:27:23.206Z,71.60
2017-09-27T16:29:50.737Z,72.20
2017-09-27T16:32:18.992Z,73.20
2017-09-27T16:34:47.980Z,73.90
2017-09-27T16:37:15.543Z,73.90
2017-09-27T16:39:43.107Z,74.10
2017-09-27T16:42:12.655Z,75.10
2017-09-27T16:44:40.526Z,75.10
2017-09-27T16:47:08.036Z,76.20
2017-09-27T16:49:35.641Z,76.50
2017-09-27T16:52:03.404Z,77.20
2017-09-27T16:54:30.936Z,77.70
2017-09-27T16:56:59.250Z,81.30
2017-09-27T16:59:26.901Z,81.30
2017-09-27T17:01:54.423Z,82.90
2017-09-27T17:04:22.743Z,85.70
2017-09-27T17:06:50.266Z,85.60
2017-09-27T17:09:18.552Z,87.40
2017-09-27T17:11:47.010Z,88.00
2017-09-27T17:14:14.565Z,88.00
2017-09-27T17:16:42.861Z,89.20
2017-09-27T17:19:11.170Z,90.00
2017-09-27T17:21:38.938Z,90.00
2017-09-27T17:24:06.430Z,90.30
2017-09-27T17:26:34.117Z,90.50
2017-09-27T17:29:02.433Z,91.10
2017-09-27T17:31:29.947Z,91.10
2017-09-27T17:33:58.245Z,91.20
2017-09-27T17:36:26.469Z,91.30
2017-09-27T17:38:53.973Z,91.30
2017-09-27T17:41:21.641Z,91.40
2017-09-27T17:43:49.143Z,91.60
2017-09-27T17:46:17.495Z,91.60
2017-09-27T17:48:45.396Z,91.70
2017-09-27T17:51:12.879Z,91.80
2017-09-27T17:53:40.380Z,92.00
2017-09-27T17:56:07.961Z,92.00
2017-09-27T17:58:35.425Z,91.90
2017-09-27T18:01:02.957Z,91.90
2017-09-27T18:03:30.606Z,92.00
2017-09-27T18:09:09.838Z,92.10
2017-09-27T18:11:43.936Z,92.10
2017-09-27T18:14:17.287Z,92.10
2017-09-27T18:16:50.501Z,92.00
2017-09-27T18:19:18.126Z,92.00
2017-09-27T18:21:45.601Z,92.00
2017-09-27T18:24:13.203Z,91.90
2017-09-27T18:26:40.761Z,92.00
2017-09-27T18:29:09.099Z,92.30
2017-09-27T18:31:36.578Z,92.30
2017-09-27T18:34:04.472Z,92.20
2017-09-27T18:36:32.724Z,92.30
2017-09-27T18:39:00.284Z,92.30
2017-09-27T18:41:27.953Z,92.30
2017-09-27T18:43:55.486Z,92.30
2017-09-27T18:46:22.958Z,92.30
2017-09-27T18:48:51.170Z,92.30
2017-09-27T18:51:18.725Z,92.50
2017-09-27T18:53:47.093Z,92.20
2017-09-27T18:56:16.183Z,92.20
2017-09-27T18:58:44.569Z,92.20
2017-09-27T19:01:13.470Z,92.20
2017-09-27T19:03:41.014Z,92.20
2017-09-27T19:06:09.294Z,92.00
2017-09-27T19:08:37.678Z,92.10
2017-09-27T19:11:06.017Z,92.00
2017-09-27T19:13:33.554Z,92.00
2017-09-27T19:16:01.046Z,92.20
2017-09-27T19:18:28.707Z,92.00
2017-09-27T19:20:56.362Z,91.90
2017-09-27T19:23:23.986Z,92.10
2017-09-27T19:25:51.553Z,92.20
2017-09-27T19:28:19.029Z,92.20
2017-09-27T19:30:47.229Z,92.20
2017-09-27T19:33:14.947Z,92.20
2017-09-27T19:35:42.509Z,92.00
2017-09-27T19:38:10.195Z,92.00
2017-09-27T19:40:38.630Z,92.10
2017-09-27T19:43:06.260Z,92.10
2017-09-27T19:45:34.589Z,92.20
2017-09-27T19:48:02.178Z,92.20
2017-09-27T19:50:29.684Z,92.20
2017-09-27T19:52:57.314Z,92.40
2017-09-27T19:55:25.019Z,92.40
2017-09-27T19:57:52.481Z,92.30
2017-09-27T20:00:19.961Z,92.20
2017-09-27T20:02:47.668Z,92.20
2017-09-27T20:05:15.929Z,92.20
2017-09-27T20:07:43.485Z,92.20
2017-09-27T20:10:12.974Z,92.30
2017-09-27T20:12:40.449Z,92.30
2017-09-27T20:15:08.707Z,92.20
2017-09-27T20:17:36.228Z,92.20
2017-09-27T20:20:03.883Z,92.20
2017-09-27T20:22:31.385Z,92.30
2017-09-27T20:24:58.932Z,92.20
2017-09-27T20:27:26.443Z,92.20
2017-09-27T20:29:54.099Z,92.10
2017-09-27T20:32:21.598Z,92.10
2017-09-27T20:34:49.092Z,92.10
2017-09-27T20:37:16.869Z,92.20
2017-09-27T20:39:45.195Z,92.20
2017-09-27T20:42:12.729Z,92.10
2017-09-27T20:44:40.529Z,92.20
2017-09-27T20:47:08.037Z,92.20
2017-09-27T20:49:36.378Z,92.30
2017-09-27T20:52:03.881Z,92.30
2017-09-27T20:54:31.528Z,92.20
2017-09-27T20:57:00.404Z,92.30
2017-09-27T20:59:28.221Z,92.30
2017-09-27T21:01:55.711Z,92.30
2017-09-27T21:04:23.181Z,92.40
2017-09-27T21:06:50.883Z,92.30
2017-09-27T21:09:18.389Z,92.40
2017-09-27T21:11:46.099Z,92.50
2017-09-27T21:14:13.883Z,92.40
2017-09-27T21:16:41.449Z,92.50
2017-09-27T21:19:09.838Z,92.60
2017-09-27T21:21:37.544Z,92.50
2017-09-27T21:24:05.850Z,92.50
2017-09-27T21:26:33.453Z,92.50
2017-09-27T21:29:01.119Z,92.60
2017-09-27T21:31:28.585Z,92.60
2017-09-27T21:33:57.289Z,92.50
2017-09-27T21:36:25.784Z,92.60
2017-09-27T21:38:53.302Z,92.60
2017-09-27T21:41:20.786Z,92.50
2017-09-27T21:43:49.128Z,92.70
2017-09-27T21:46:16.628Z,92.70
2017-09-27T21:48:44.891Z,92.80
2017-09-27T21:51:13.496Z,93.00
2017-09-27T21:53:40.963Z,93.00
2017-09-27T21:56:08.455Z,92.90
2017-09-27T21:58:35.967Z,92.90
2017-09-27T22:01:03.523Z,92.90
2017-09-27T22:03:31.778Z,92.90
2017-09-27T22:06:00.208Z,92.90
2017-09-27T22:08:27.712Z,92.80
2017-09-27T22:10:56.120Z,93.10
2017-09-27T22:13:23.980Z,93.10
2017-09-27T22:15:52.386Z,93.20
2017-09-27T22:18:19.870Z,93.20
2017-09-27T22:20:51.539Z,93.20
2017-09-27T22:23:19.025Z,93.30
2017-09-27T22:25:47.321Z,93.30
2017-09-27T22:28:14.843Z,93.30
2017-09-27T22:30:43.203Z,93.20
2017-09-27T22:33:10.909Z,93.20
2017-09-27T22:35:38.373Z,93.30
2017-09-27T22:38:05.941Z,93.40
2017-09-27T22:40:33.417Z,93.30
2017-09-27T22:43:00.882Z,93.30
2017-09-27T22:45:28.408Z,93.40
2017-09-27T22:47:55.890Z,93.50
2017-09-27T22:50:23.373Z,93.50
2017-09-27T22:52:50.973Z,93.60
2017-09-27T22:55:18.469Z,93.70
2017-09-27T22:57:46.026Z,93.70
2017-09-27T23:00:14.053Z,93.60
2017-09-27T23:02:41.545Z,93.70
2017-09-27T23:05:09.275Z,93.70
2017-09-27T23:07:36.776Z,93.80
2017-09-27T23:10:05.103Z,93.90
2017-09-27T23:12:33.381Z,93.90
2017-09-27T23:15:01.633Z,93.80
2017-09-27T23:17:29.109Z,93.80
2017-09-27T23:19:57.394Z,93.80
2017-09-27T23:22:35.744Z,93.90
2017-09-27T23:25:03.244Z,93.90
2017-09-27T23:27:30.768Z,94.10
2017-09-27T23:29:59.087Z,94.00
2017-09-27T23:32:27.371Z,94.00
2017-09-27T23:34:55.629Z,94.00
2017-09-27T23:37:23.393Z,94.00
2017-09-27T23:39:51.657Z,94.40
2017-09-27T23:42:19.178Z,94.10
2017-09-27T23:44:46.686Z,94.20
2017-09-27T23:47:15.070Z,94.30
2017-09-27T23:49:43.367Z,94.40
2017-09-27T23:52:11.633Z,94.40
2017-09-27T23:54:39.893Z,94.30
2017-09-27T23:57:07.381Z,94.30
2017-09-27T23:59:34.878Z,94.50
